Weather at Dubai International Airport

Public forecast

Using degrees Celsius for public forecast. Weather courtesy of forecast.io.

Current aviation weather report (METAR) for Dubai International Airport

Retrieved 2021/09/27 00:00 UTC (20 minutes ago):

OMDB 270000Z 28006KT 250V360 CAVOK 32/23 Q1003 NOSIG

Aviation forecast (TAF) for Dubai International Airport

Retrieved 2021-09-27 00:00 UTC (20 minutes ago):

TAF OMDB 262300Z 2700/2806 27010KT 8000 FEW025 BECMG 2700/2702 18005KT BECMG 2707/2709 32010KT BECMG 2717/2719 05005KT PROB30 2800/2805 4000 HZ BKN008